KKLS

Southwest Washington Regional Airport

Kelso, Washington, USA
METAR KKLS 241456Z AUTO 00000KT 10SM CLR 14/12 A3003 RMK AO2 SLP173 T01440122 56012
Observed Flight Rules
Jun-24 @ 14:56 UTC (10 minutes ago) Visual Flight Rules
Visibility Clouds
10 miles
  • Clear skies
Temperatures Readings
Current 14°C / 57°F
Dewpoint 12°C / 54°F
Humidity 88%
Altimeter 30.03" Hg
Pressure 1017.3 hPa
Elevation 5
METAR KKLS 241456Z AUTO 00000KT 10SM CLR 14/12 A3003 RMK AO2 SLP173 T01440122 56012
Observed Flight Rules
Jun-24 @ 14:56 UTC
(10 minutes ago)
VFR
Clouds
  • Clear skies
Temperature Dewpoint
14°C / 57°F 12°C / 54°F
Humidity Altimeter Pressure
88% 30.03" Hg 1017.3 hPa